createdAt,value
2019-02-16T00:01:10.379Z,33.17
2019-02-16T00:03:39.447Z,33.33
2019-02-16T00:06:08.470Z,31.30
2019-02-16T00:08:37.401Z,34.50
2019-02-16T00:11:06.387Z,33.38
2019-02-16T00:13:35.324Z,32.33
2019-02-16T00:16:04.407Z,33.63
2019-02-16T00:18:33.368Z,33.33
2019-02-16T00:21:04.291Z,35.23
2019-02-16T00:23:33.033Z,35.13
2019-02-16T00:26:01.973Z,33.67
2019-02-16T00:28:30.938Z,34.07
2019-02-16T00:31:00.027Z,31.37
2019-02-16T00:33:29.070Z,32.77
2019-02-16T00:35:57.971Z,30.97
2019-02-16T00:38:26.920Z,25.60
2019-02-16T00:40:55.823Z,26.10
2019-02-16T00:43:24.950Z,25.83
2019-02-16T00:45:53.964Z,23.77
2019-02-16T00:48:22.888Z,25.57
2019-02-16T00:50:51.821Z,22.47
2019-02-16T00:53:20.752Z,22.73
2019-02-16T00:55:49.676Z,21.33
2019-02-16T00:58:18.596Z,25.90
2019-02-16T01:00:49.124Z,25.70
2019-02-16T01:03:18.122Z,22.43
2019-02-16T01:05:47.086Z,20.80
2019-02-16T01:08:16.095Z,20.53
2019-02-16T01:10:45.672Z,21.57
2019-02-16T01:13:14.689Z,19.27
2019-02-16T01:15:43.696Z,21.07
2019-02-16T01:18:12.692Z,17.30
2019-02-16T01:20:41.653Z,18.07
2019-02-16T01:23:10.612Z,17.27
2019-02-16T01:25:39.552Z,17.27
2019-02-16T01:28:08.554Z,17.60
2019-02-16T01:30:37.524Z,15.63
2019-02-16T01:33:06.435Z,17.27
2019-02-16T01:35:35.394Z,19.33
2019-02-16T01:38:04.363Z,17.33
2019-02-16T01:40:33.309Z,21.83
2019-02-16T01:43:02.231Z,20.23
2019-02-16T01:45:31.226Z,19.47
2019-02-16T01:48:00.220Z,19.33
2019-02-16T01:50:29.159Z,19.10
2019-02-16T01:52:58.218Z,19.73
2019-02-16T01:55:27.185Z,17.73
2019-02-16T01:57:56.248Z,18.13
2019-02-16T02:00:25.216Z,18.20
2019-02-16T02:02:54.130Z,18.17
2019-02-16T02:05:23.050Z,16.33
2019-02-16T02:07:52.047Z,16.53
2019-02-16T02:10:20.987Z,16.10
2019-02-16T02:12:49.967Z,17.77
2019-02-16T02:15:18.911Z,16.53
2019-02-16T02:17:48.120Z,15.30
2019-02-16T02:20:17.431Z,14.57
2019-02-16T02:22:46.452Z,15.30
2019-02-16T02:25:15.411Z,14.47
2019-02-16T02:27:44.453Z,14.27
2019-02-16T02:30:13.413Z,14.37
2019-02-16T02:32:42.334Z,14.40
2019-02-16T02:35:11.337Z,13.87
2019-02-16T02:37:40.304Z,15.23
2019-02-16T02:40:09.308Z,14.03
2019-02-16T02:42:38.489Z,13.90
2019-02-16T02:45:08.869Z,13.43
2019-02-16T02:47:37.828Z,14.53
2019-02-16T02:50:07.025Z,13.47
2019-02-16T02:52:35.951Z,13.67
2019-02-16T02:55:05.809Z,13.63
2019-02-16T02:57:34.741Z,12.90
2019-02-16T03:00:03.867Z,14.93
2019-02-16T03:02:32.824Z,13.27
2019-02-16T03:05:01.853Z,14.03
2019-02-16T03:07:30.864Z,14.53
2019-02-16T03:09:59.793Z,14.07
2019-02-16T03:12:28.679Z,14.93
2019-02-16T03:14:57.669Z,16.60
2019-02-16T03:17:26.636Z,16.20
2019-02-16T03:19:55.551Z,15.43
2019-02-16T03:22:26.084Z,15.63
2019-02-16T03:24:55.027Z,12.37
2019-02-16T03:28:02.991Z,13.00
2019-02-16T03:31:13.839Z,12.27
2019-02-16T03:33:48.103Z,14.07
2019-02-16T03:37:09.355Z,13.77
2019-02-16T03:39:41.572Z,16.47
2019-02-16T03:42:10.532Z,14.57
2019-02-16T03:44:39.503Z,15.57
2019-02-16T03:47:08.489Z,15.83
2019-02-16T03:49:37.387Z,15.37
2019-02-16T03:52:13.333Z,18.73
2019-02-16T03:54:37.012Z,17.77
2019-02-16T03:57:05.998Z,16.20
2019-02-16T03:59:34.988Z,18.03
2019-02-16T04:02:09.202Z,12.47
2019-02-16T04:04:38.135Z,12.07
2019-02-16T04:07:07.101Z,12.57
2019-02-16T04:09:36.073Z,12.90
2019-02-16T04:12:05.031Z,12.13
2019-02-16T04:14:33.957Z,13.13
2019-02-16T04:17:02.933Z,14.80
2019-02-16T04:19:31.833Z,13.47
2019-02-16T04:22:01.842Z,13.60
2019-02-16T04:24:31.024Z,11.47
2019-02-16T04:27:00.113Z,11.93
2019-02-16T04:29:29.107Z,11.87
2019-02-16T04:31:58.065Z,11.97
2019-02-16T04:34:27.007Z,11.97
2019-02-16T04:36:55.961Z,12.10
2019-02-16T04:39:24.960Z,11.30
2019-02-16T04:41:53.975Z,13.48
2019-02-16T04:44:22.972Z,11.70
2019-02-16T04:46:51.920Z,11.57
2019-02-16T04:49:20.852Z,11.83
2019-02-16T04:51:49.870Z,11.37
2019-02-16T04:54:18.915Z,11.53
2019-02-16T04:56:48.220Z,10.77
2019-02-16T04:59:17.258Z,10.90
2019-02-16T05:01:46.215Z,10.10
2019-02-16T05:04:15.194Z,10.43
2019-02-16T05:06:44.181Z,10.47
2019-02-16T05:09:13.196Z,11.13
2019-02-16T05:11:42.097Z,10.90
2019-02-16T05:14:11.056Z,10.50
2019-02-16T05:16:40.152Z,10.13
2019-02-16T05:19:09.097Z,9.57
2019-02-16T05:21:38.032Z,9.60
2019-02-16T05:24:07.036Z,10.50
2019-02-16T05:26:35.962Z,10.07
2019-02-16T05:29:04.868Z,9.27
2019-02-16T05:31:33.838Z,10.33
2019-02-16T05:34:02.770Z,9.93
2019-02-16T05:36:31.686Z,9.40
2019-02-16T05:39:00.648Z,9.80
2019-02-16T05:41:29.567Z,10.47
2019-02-16T05:43:58.495Z,9.73
2019-02-16T05:46:27.440Z,15.70
2019-02-16T05:48:56.439Z,11.00
2019-02-16T05:51:25.430Z,11.57
2019-02-16T05:53:54.352Z,21.97
2019-02-16T05:56:23.432Z,16.97
2019-02-16T05:58:52.542Z,15.90
2019-02-16T06:01:21.477Z,13.07
2019-02-16T06:03:50.393Z,12.67
2019-02-16T06:06:19.347Z,13.20
2019-02-16T06:08:48.268Z,11.47
2019-02-16T06:11:17.239Z,11.57
2019-02-16T06:13:46.160Z,11.63
2019-02-16T06:16:15.143Z,10.13
2019-02-16T06:18:44.075Z,10.17
2019-02-16T06:21:13.033Z,10.30
2019-02-16T06:23:43.606Z,9.80
2019-02-16T06:26:12.929Z,10.00
2019-02-16T06:28:41.954Z,10.20
2019-02-16T06:31:10.910Z,9.90
2019-02-16T06:33:39.870Z,10.00
2019-02-16T06:36:18.740Z,9.57
2019-02-16T06:38:47.677Z,10.33
2019-02-16T06:41:16.612Z,10.80
2019-02-16T06:43:45.612Z,10.60
2019-02-16T06:46:14.608Z,10.30
2019-02-16T06:48:43.569Z,12.47
2019-02-16T06:51:12.586Z,11.50
2019-02-16T06:53:41.527Z,11.17
2019-02-16T06:56:19.113Z,10.47
2019-02-16T06:58:48.217Z,11.27
2019-02-16T07:01:17.480Z,10.80
2019-02-16T07:03:46.520Z,10.17
2019-02-16T07:06:15.431Z,10.40
2019-02-16T07:08:44.396Z,11.17
2019-02-16T07:11:13.372Z,10.23
2019-02-16T07:13:42.368Z,10.10
2019-02-16T07:16:29.344Z,25.20
2019-02-16T07:19:02.394Z,10.57
2019-02-16T07:21:31.398Z,26.70
2019-02-16T07:24:00.376Z,14.07
2019-02-16T07:26:29.415Z,17.17
2019-02-16T07:28:58.345Z,12.27
2019-02-16T07:31:27.309Z,11.03
2019-02-16T07:33:56.237Z,10.97
2019-02-16T07:36:25.360Z,9.67
2019-02-16T07:39:12.131Z,9.37
2019-02-16T07:41:41.107Z,9.40
2019-02-16T07:44:27.828Z,9.10
2019-02-16T07:47:18.927Z,10.33
2019-02-16T07:50:25.070Z,11.77
2019-02-16T07:53:13.047Z,13.47
2019-02-16T07:56:01.960Z,12.80
2019-02-16T07:58:46.554Z,13.17
2019-02-16T08:01:24.898Z,12.97
2019-02-16T08:04:04.156Z,12.17
2019-02-16T08:06:48.467Z,12.13
2019-02-16T08:09:29.689Z,10.07
2019-02-16T08:12:16.693Z,11.87
2019-02-16T08:14:57.863Z,11.30
2019-02-16T08:17:32.424Z,8.27
2019-02-16T08:20:35.555Z,7.63
2019-02-16T08:23:11.695Z,7.43
2019-02-16T08:25:53.605Z,6.57
2019-02-16T08:28:41.636Z,7.13
2019-02-16T08:31:26.677Z,7.70
2019-02-16T08:34:17.991Z,10.60
2019-02-16T08:37:18.142Z,13.20
2019-02-16T08:40:04.783Z,13.07
2019-02-16T08:43:00.492Z,11.37
2019-02-16T08:45:45.494Z,8.33
2019-02-16T08:48:36.311Z,7.27
2019-02-16T08:51:24.368Z,6.83
2019-02-16T08:54:11.261Z,6.10
2019-02-16T08:57:08.976Z,5.90
2019-02-16T08:59:55.837Z,6.13
2019-02-16T09:02:39.567Z,6.57
2019-02-16T09:05:18.070Z,6.50
2019-02-16T09:08:02.227Z,6.10
2019-02-16T09:10:48.930Z,5.40
2019-02-16T09:13:51.637Z,5.93
2019-02-16T09:16:43.056Z,5.50
2019-02-16T09:19:24.838Z,5.17
2019-02-16T09:22:14.353Z,5.40
2019-02-16T09:24:57.349Z,5.27
2019-02-16T09:27:44.542Z,5.40
2019-02-16T09:30:35.778Z,5.60
2019-02-16T09:33:28.221Z,6.00
2019-02-16T09:36:22.555Z,6.17
2019-02-16T09:39:09.430Z,5.73
2019-02-16T09:41:49.357Z,6.67
2019-02-16T09:44:36.273Z,5.90
2019-02-16T09:47:16.913Z,7.10
2019-02-16T09:50:07.977Z,6.90
2019-02-16T09:53:14.295Z,5.20
2019-02-16T09:55:59.512Z,4.77
2019-02-16T09:58:50.813Z,4.40
2019-02-16T10:01:37.625Z,4.43
2019-02-16T10:04:11.911Z,4.63
2019-02-16T10:06:49.528Z,4.33
2019-02-16T10:09:40.251Z,4.57
2019-02-16T10:12:46.423Z,4.20
2019-02-16T10:15:25.571Z,4.60
2019-02-16T10:18:13.698Z,4.57
2019-02-16T10:21:04.661Z,3.40
2019-02-16T10:23:46.250Z,3.60
2019-02-16T10:26:33.160Z,3.93
2019-02-16T10:29:33.428Z,4.37
2019-02-16T10:32:08.128Z,4.40
2019-02-16T10:34:46.864Z,5.27
2019-02-16T10:37:28.251Z,4.13
2019-02-16T10:40:16.241Z,4.03
2019-02-16T10:43:07.660Z,4.13
2019-02-16T10:45:55.667Z,3.70
2019-02-16T10:48:55.920Z,3.70
2019-02-16T10:51:37.587Z,4.03
2019-02-16T10:54:26.966Z,4.37
2019-02-16T10:57:11.125Z,4.10
2019-02-16T11:00:14.203Z,3.97
2019-02-16T11:03:05.208Z,3.60
2019-02-16T11:05:41.637Z,3.97
2019-02-16T11:08:32.451Z,3.50
2019-02-16T11:11:20.522Z,3.50
2019-02-16T11:13:59.710Z,5.20
2019-02-16T11:16:46.684Z,8.07
2019-02-16T11:19:27.101Z,11.60
2019-02-16T11:22:07.780Z,9.93
2019-02-16T11:25:05.076Z,26.77
2019-02-16T11:27:45.611Z,17.23
2019-02-16T11:30:33.359Z,12.17
2019-02-16T11:33:16.764Z,7.77
2019-02-16T11:36:01.289Z,11.23
2019-02-16T11:38:45.408Z,3.70
2019-02-16T11:41:34.248Z,11.93
2019-02-16T11:44:18.988Z,7.23
2019-02-16T11:47:00.584Z,6.90
2019-02-16T11:49:39.114Z,11.50
2019-02-16T11:52:28.460Z,9.20
2019-02-16T11:55:09.271Z,6.00
2019-02-16T11:58:08.305Z,7.57
2019-02-16T12:00:44.815Z,8.40
2019-02-16T12:03:25.492Z,5.93
2019-02-16T12:06:13.507Z,4.60
2019-02-16T12:08:50.271Z,5.93
2019-02-16T12:11:44.385Z,9.47
2019-02-16T12:14:31.068Z,12.53
2019-02-16T12:17:19.190Z,9.97
2019-02-16T12:19:54.741Z,4.43
2019-02-16T12:22:33.013Z,5.53
2019-02-16T12:25:21.000Z,9.57
2019-02-16T12:28:02.797Z,16.10
2019-02-16T12:30:42.724Z,6.03
2019-02-16T12:33:29.524Z,4.10
2019-02-16T12:36:16.515Z,5.57
2019-02-16T12:38:51.402Z,11.20
2019-02-16T12:41:39.528Z,5.37
2019-02-16T12:44:25.992Z,4.90
2019-02-16T12:47:09.559Z,4.43
2019-02-16T12:50:00.440Z,3.77
2019-02-16T12:52:47.357Z,4.60
2019-02-16T12:55:41.747Z,4.27
2019-02-16T12:58:29.003Z,5.00
2019-02-16T13:01:23.323Z,16.37
2019-02-16T13:04:01.783Z,3.67
2019-02-16T13:06:57.340Z,14.50
2019-02-16T13:09:41.642Z,3.50
2019-02-16T13:12:16.494Z,4.90
2019-02-16T13:15:09.952Z,5.57
2019-02-16T13:18:05.112Z,4.00
2019-02-16T13:20:44.372Z,5.60
2019-02-16T13:23:41.569Z,3.90
2019-02-16T13:26:32.780Z,4.43
2019-02-16T13:29:13.433Z,8.63
2019-02-16T13:32:04.533Z,17.80
2019-02-16T13:34:52.594Z,8.97
2019-02-16T13:37:36.914Z,7.67
2019-02-16T13:40:28.468Z,4.43
2019-02-16T13:43:08.676Z,34.70
2019-02-16T13:45:54.384Z,5.37
2019-02-16T13:48:27.983Z,3.37
2019-02-16T13:51:03.695Z,2.90
2019-02-16T13:53:50.409Z,2.83
2019-02-16T13:56:38.521Z,4.00
2019-02-16T13:59:29.829Z,2.77
2019-02-16T14:02:09.531Z,3.30
2019-02-16T14:04:57.576Z,2.90
2019-02-16T14:07:40.273Z,2.83
2019-02-16T14:10:15.891Z,2.70
2019-02-16T14:13:03.941Z,2.97
2019-02-16T14:15:49.095Z,3.07
2019-02-16T14:18:18.119Z,7.60
2019-02-16T14:20:47.039Z,5.33
2019-02-16T14:23:15.995Z,3.37
2019-02-16T14:25:46.211Z,5.00
2019-02-16T14:28:15.207Z,3.33
2019-02-16T14:30:44.137Z,6.10
2019-02-16T14:33:13.127Z,12.33
2019-02-16T14:35:42.199Z,3.70
2019-02-16T14:38:30.333Z,3.40
2019-02-16T14:40:59.343Z,3.87
2019-02-16T14:43:28.265Z,3.37
2019-02-16T14:45:57.271Z,3.70
2019-02-16T14:48:26.273Z,8.70
2019-02-16T14:50:55.239Z,5.27
2019-02-16T14:53:24.303Z,9.97
2019-02-16T14:55:54.715Z,15.33
2019-02-16T14:58:23.795Z,22.73
2019-02-16T15:00:52.832Z,8.20
2019-02-16T15:03:21.792Z,6.93
2019-02-16T15:05:50.708Z,22.40
2019-02-16T15:08:19.692Z,6.57
2019-02-16T15:10:48.614Z,4.87
2019-02-16T15:13:17.559Z,5.07
2019-02-16T15:15:46.640Z,5.17
2019-02-16T15:18:15.612Z,7.60
2019-02-16T15:20:44.621Z,5.23
2019-02-16T15:23:13.600Z,5.00
2019-02-16T15:25:42.527Z,7.17
2019-02-16T15:28:11.468Z,4.73
2019-02-16T15:30:40.432Z,4.00
2019-02-16T15:33:09.444Z,4.47
2019-02-16T15:35:38.400Z,4.20
2019-02-16T15:38:07.588Z,8.57
2019-02-16T15:40:36.668Z,13.60
2019-02-16T15:43:05.843Z,8.97
2019-02-16T15:45:34.844Z,8.60
2019-02-16T15:48:03.829Z,6.93
2019-02-16T15:51:18.626Z,5.33
2019-02-16T15:53:47.804Z,5.70
2019-02-16T15:56:16.760Z,5.37
2019-02-16T15:58:45.717Z,6.30
2019-02-16T16:01:14.871Z,6.63
2019-02-16T16:03:43.898Z,7.70
2019-02-16T16:06:12.808Z,9.67
2019-02-16T16:08:53.026Z,8.43
2019-02-16T16:11:59.676Z,5.17
2019-02-16T16:14:46.162Z,5.13
2019-02-16T16:17:43.231Z,4.90
2019-02-16T16:20:30.423Z,4.50
2019-02-16T16:23:24.660Z,4.50
2019-02-16T16:26:22.326Z,4.30
2019-02-16T16:29:10.348Z,5.77
2019-02-16T16:32:07.512Z,4.37
2019-02-16T16:34:54.480Z,4.90
2019-02-16T16:37:31.335Z,4.97
2019-02-16T16:40:07.561Z,5.30
2019-02-16T16:42:55.565Z,7.13
2019-02-16T16:45:42.523Z,7.00
2019-02-16T16:48:39.554Z,6.23
2019-02-16T16:51:26.295Z,6.17
2019-02-16T16:54:06.035Z,6.53
2019-02-16T16:56:56.896Z,6.13
2019-02-16T16:59:45.090Z,5.83
2019-02-16T17:02:33.423Z,6.30
2019-02-16T17:05:24.744Z,6.30
2019-02-16T17:08:12.815Z,5.50
2019-02-16T17:10:50.381Z,6.00
2019-02-16T17:13:47.601Z,10.37
2019-02-16T17:16:33.609Z,12.03
2019-02-16T17:19:18.958Z,9.33
2019-02-16T17:22:04.416Z,10.27
2019-02-16T17:24:46.201Z,11.90
2019-02-16T17:27:27.586Z,11.00
2019-02-16T17:30:11.351Z,7.57
2019-02-16T17:32:53.084Z,9.03
2019-02-16T17:35:53.681Z,8.63
2019-02-16T17:38:38.550Z,9.13
2019-02-16T17:41:19.264Z,8.00
2019-02-16T17:44:06.216Z,21.90
2019-02-16T17:46:55.810Z,30.90
2019-02-16T17:49:42.906Z,35.07
2019-02-16T17:52:30.992Z,15.60
2019-02-16T17:55:16.159Z,11.20
2019-02-16T17:58:07.385Z,10.43
2019-02-16T18:00:54.281Z,15.00
2019-02-16T18:03:58.693Z,12.43
2019-02-16T18:06:52.959Z,11.03
2019-02-16T18:09:42.499Z,14.80
2019-02-16T18:12:18.133Z,13.77
2019-02-16T18:14:57.566Z,14.17
2019-02-16T18:17:44.381Z,14.27
2019-02-16T18:20:31.552Z,13.40
2019-02-16T18:23:19.572Z,12.73
2019-02-16T18:26:07.861Z,12.47
2019-02-16T18:28:56.997Z,16.40
2019-02-16T18:31:38.918Z,41.17
2019-02-16T18:34:31.245Z,18.60
2019-02-16T18:37:22.388Z,16.13
2019-02-16T18:40:06.805Z,16.87
2019-02-16T18:42:44.330Z,15.67
2019-02-16T18:45:28.969Z,15.33
2019-02-16T18:48:23.367Z,17.60
2019-02-16T18:51:27.034Z,15.80
2019-02-16T18:54:14.558Z,17.20
2019-02-16T18:57:09.274Z,14.57
2019-02-16T18:59:52.259Z,21.70
2019-02-16T19:02:29.484Z,37.43
2019-02-16T19:05:18.139Z,19.73
2019-02-16T19:08:12.283Z,23.73
2019-02-16T19:11:00.333Z,15.87
2019-02-16T19:13:47.336Z,12.00
2019-02-16T19:16:31.617Z,14.97
2019-02-16T19:19:13.900Z,16.30
2019-02-16T19:22:07.980Z,17.33
2019-02-16T19:24:55.253Z,13.87
2019-02-16T19:27:31.221Z,14.43
2019-02-16T19:30:25.224Z,15.67
2019-02-16T19:33:07.715Z,14.40
2019-02-16T19:35:58.643Z,14.10
2019-02-16T19:38:49.603Z,15.20
2019-02-16T19:41:28.638Z,14.57
2019-02-16T19:44:15.611Z,13.70
2019-02-16T19:47:02.784Z,15.73
2019-02-16T19:49:50.887Z,17.33
2019-02-16T19:52:35.705Z,14.57
2019-02-16T19:55:23.364Z,15.40
2019-02-16T19:58:12.523Z,14.67
2019-02-16T20:00:50.736Z,14.63
2019-02-16T20:03:45.029Z,16.07
2019-02-16T20:06:22.588Z,14.23
2019-02-16T20:08:58.559Z,13.60
2019-02-16T20:11:51.201Z,13.40
2019-02-16T20:14:26.742Z,18.90
2019-02-16T20:17:13.549Z,19.10
2019-02-16T20:20:01.653Z,27.27
2019-02-16T20:22:43.261Z,38.73
2019-02-16T20:25:21.812Z,38.67
2019-02-16T20:28:08.805Z,31.13
2019-02-16T20:31:00.797Z,31.43
2019-02-16T20:33:57.534Z,24.47
2019-02-16T20:36:37.731Z,22.90
2019-02-16T20:39:26.624Z,22.87
2019-02-16T20:42:14.822Z,18.07
2019-02-16T20:45:09.176Z,19.60
2019-02-16T20:47:47.393Z,16.10
2019-02-16T20:50:34.301Z,15.90
2019-02-16T20:53:22.992Z,15.77
2019-02-16T20:56:00.561Z,13.37
2019-02-16T20:58:37.264Z,13.17
2019-02-16T21:01:27.991Z,16.17
2019-02-16T21:04:19.936Z,13.77
2019-02-16T21:07:12.275Z,15.17
2019-02-16T21:10:15.796Z,20.20
2019-02-16T21:12:54.082Z,19.63
2019-02-16T21:15:42.166Z,18.23
2019-02-16T21:18:19.185Z,14.63
2019-02-16T21:20:57.821Z,12.87
2019-02-16T21:23:50.245Z,13.47
2019-02-16T21:26:47.151Z,11.90
2019-02-16T21:29:25.730Z,12.83
2019-02-16T21:32:07.287Z,11.67
2019-02-16T21:34:44.451Z,12.27
2019-02-16T21:37:38.605Z,11.73
2019-02-16T21:40:17.584Z,11.57
2019-02-16T21:42:51.988Z,11.23
2019-02-16T21:45:33.266Z,11.07
2019-02-16T21:48:22.424Z,11.47
2019-02-16T21:51:10.083Z,11.70
2019-02-16T21:53:47.214Z,12.20
2019-02-16T21:56:38.251Z,11.80
2019-02-16T21:59:24.898Z,10.97
2019-02-16T22:02:19.271Z,11.87
2019-02-16T22:04:55.265Z,11.20
2019-02-16T22:07:41.988Z,10.60
2019-02-16T22:10:29.064Z,11.07
2019-02-16T22:13:07.504Z,9.97
2019-02-16T22:15:36.680Z,10.47
2019-02-16T22:18:05.710Z,9.83
2019-02-16T22:20:34.754Z,8.97
2019-02-16T22:23:03.781Z,9.47
2019-02-16T22:25:32.701Z,9.40
2019-02-16T22:28:01.844Z,8.73
2019-02-16T22:30:33.983Z,9.40
2019-02-16T22:33:02.922Z,9.63
2019-02-16T22:35:32.069Z,9.67
2019-02-16T22:38:01.046Z,9.90
2019-02-16T22:40:30.103Z,9.17
2019-02-16T22:42:59.164Z,8.77
2019-02-16T22:45:28.084Z,9.67
2019-02-16T22:47:57.160Z,10.77
2019-02-16T22:50:26.122Z,9.77
2019-02-16T22:52:55.203Z,10.37
2019-02-16T22:55:24.180Z,10.57
2019-02-16T22:57:53.223Z,10.63
2019-02-16T23:00:39.812Z,11.27
2019-02-16T23:03:09.110Z,11.53
2019-02-16T23:05:38.270Z,12.73
2019-02-16T23:08:07.356Z,15.67
2019-02-16T23:10:36.454Z,16.07
2019-02-16T23:13:06.017Z,17.57
2019-02-16T23:15:35.010Z,19.90
2019-02-16T23:18:09.882Z,22.27
2019-02-16T23:20:38.928Z,18.77
2019-02-16T23:23:07.928Z,20.43
2019-02-16T23:25:36.971Z,26.10
2019-02-16T23:28:05.996Z,28.77
2019-02-16T23:30:35.016Z,43.83
2019-02-16T23:33:04.048Z,30.10
2019-02-16T23:35:33.045Z,35.23
2019-02-16T23:38:01.990Z,25.53
2019-02-16T23:40:31.025Z,30.07
2019-02-16T23:42:59.948Z,33.13
2019-02-16T23:45:28.947Z,28.10
2019-02-16T23:47:57.929Z,36.00
2019-02-16T23:50:26.853Z,35.83
2019-02-16T23:52:55.771Z,35.10
2019-02-16T23:55:24.775Z,36.67
2019-02-16T23:57:53.779Z,52.63
